Relevés horaires Koksijde (Belgique)


Relevés horaires à Koksijde - Mercredi 11 Mai 2022
Heure UTC1 Température [°C] Vent [km/h] Hum. [%] Pres.4 [hPa] Visi. [Km] Nébu. [octa] Préc.5 [mm] Cond.
2m. Res. Ros. Dir.2 Vit. Moy. Raf.3
23:00 12.0 11.9 10.4 SO 5.6 -- 11.1 90 1014.7(2.7/3h) 12 -- -- --
22:00 12.4 11.9 11.1 OSO 7.4 -- 14.8 92 1013.8(2.6/3h) 11 -- -- --
21:00 13.1 12.4 11.6 OSO 9.3 -- 27.8 91 1013.1(2.7/3h) 14 -- -- NA
20:00 13.5 12.7 11.8 OSO 11.1 -- 27.8 89 1012.1(1.9/3h) 20 -- -- NA
19:00 15.4 14.3 10.8 O 18.5 -- 27.8 74 1011.2(0.7/3h) 20 -- -- NA
18:00 18.6 18.6 9.6 OSO 13.0 -- 25.9 56 1010.2(-0.5/3h) 20 -- 0.1/12h
--
17:00 18.6 18.6 9.1 OSO 11.1 -- 25.9 54 1010.1(-1.0/3h) 20 -- -- --
16:00 18.5 18.5 8.8 SO 13.0 -- 25.9 53 1010.5(-0.6/3h) 20 -- -- --
15:00 19.1 19.1 8.3 SO 14.8 -- 24.1 50 1010.7(-0.4/3h) 20 -- -- --
13:00 18.3 18.2 7.5 OSO 14.8 -- 24.1 49 1011.2(-0.6/3h) 20 3/8 -- --
12:00 19.6 19.6 8.3 OSO 13.0 -- 25.9 48 1011.2(-0.7/3h) 20 3/8 0.1/6h
--
11:00 18.1 18 8.3 SO 13.0 -- 18.5 53 1011.6(-0.7/3h) 20 3/8 -- --
10:00 16.7 16.5 8.3 OSO 11.1 -- 16.7 58 1011.7(-0.5/3h) 20 3/8 -- --
09:00 16.4 16.4 9.3 OSO 9.3 -- 16.7 63 1012(-0.6/3h) 20 4/8 -- --
08:00 14.8 14.5 9.6 OSO 9.3 -- 16.7 71 1012.2(-0.4/3h) 20 4/8 -- --
07:00 13.3 13 9.4 OSO 7.4 -- 13.0 77 1012.3(-0.1/3h) 20 4/8 -- --
06:00 12.1 11.6 8.8 SO 7.4 -- 11.1 80 1012.7(0.1/3h) 15 4/8 -- --
05:00 10.1 9.7 7.6 SSO 5.6 -- 9.3 84 1012.7(-0.3/3h) 15 3/8 -- --
04:00 10.0 10.0 7.2 SSO 3.7 -- 9.3 83 1012.6(-0.7/3h) 20 -- -- --
03:00 10.8 10.5 7.3 S 5.6 -- 11.1 79 1012.5(-1.4/3h) 20 -- -- --
02:00 11.9 11.8 7.3 SSO 5.6 -- 9.3 73 1013(-1.3/3h) 20 -- -- --
01:00 12.3 12.2 7.2 SSO 5.6 -- 9.3 71 1013.2(-1.0/3h) 20 -- -- --
00:00 12.6 12.6 6.9 SSO 5.6 -- 14.8 68 1013.8(-0.9/3h) 20 -- -- --

1 Coordinated Universal Time. Actuellement il est 11:00 locale et 09:00 UTC.

2 Le vent souffle depuis la direction indiquée vers la direction oposée.

3 Les rafales max. sont disponible 40 min après l'heure du relevé.

4 Pour les stations d'altitude (plus de 600m) le géopotentiel du niveau le plus proche de la pression obligatoire est indiqué.

5 Les stations disposant d'un diffuseur peuvent indiquer "trace". Cela signifie que des précipitations ont touchés le sol mais que la quantité est inférieure à 0.1 mm.

Récapitulatif de la journée
Température [°C] Vent [km/h] Ensoleillement4 [h] Precipitations totale5 [mm] Pression [Hpa]
Min1 Max.2 Moy.3 Max. Min Max.
9.6 19.8 0 27.8 0 h 0 min 0 1010.1 1014.7

1 Température minimale relevée entre 18:00 UTC la veille et 18:00 UTC le jour donné.

2 Température maximale relevée entre 06:00 UTC le jour donné et 06:00 UTC le lendemain.

3 Vent moyen de la journée basé sur les relevés horaires.

4 Ensoleillement en heures relevé entre 06:00 UTC la veille et 06:00 UTC le jour donné.

5 Précipitations totales tombées entre 06:00 UTC la jour donné et 06:00 UTC le lendemain.

Graphiques horaires